sensor_id;sensor_type;location;lat;lon;timestamp;temperature;humidity
10390;DHT22;5241;47.830;12.972;2023-11-18T00:02:16;5.00;99.90
10390;DHT22;5241;47.830;12.972;2023-11-18T00:04:42;5.00;99.90
10390;DHT22;5241;47.830;12.972;2023-11-18T00:07:07;5.00;99.90
10390;DHT22;5241;47.830;12.972;2023-11-18T00:09:33;4.90;99.90
10390;DHT22;5241;47.830;12.972;2023-11-18T00:11:58;4.90;99.90
10390;DHT22;5241;47.830;12.972;2023-11-18T00:14:24;4.90;99.90
10390;DHT22;5241;47.830;12.972;2023-11-18T00:16:49;4.90;99.90
10390;DHT22;5241;47.830;12.972;2023-11-18T00:19:15;4.80;99.90
10390;DHT22;5241;47.830;12.972;2023-11-18T00:21:40;4.80;99.90
10390;DHT22;5241;47.830;12.972;2023-11-18T00:24:06;4.80;99.90
10390;DHT22;5241;47.830;12.972;2023-11-18T00:26:33;4.80;99.90
10390;DHT22;5241;47.830;12.972;2023-11-18T00:28:59;4.80;99.90
10390;DHT22;5241;47.830;12.972;2023-11-18T00:31:26;4.80;99.90
10390;DHT22;5241;47.830;12.972;2023-11-18T00:33:51;4.80;99.90
10390;DHT22;5241;47.830;12.972;2023-11-18T00:36:17;4.80;99.90
10390;DHT22;5241;47.830;12.972;2023-11-18T00:38:43;4.80;99.90
10390;DHT22;5241;47.830;12.972;2023-11-18T00:41:08;4.80;99.90
10390;DHT22;5241;47.830;12.972;2023-11-18T00:43:34;4.80;99.90
10390;DHT22;5241;47.830;12.972;2023-11-18T00:46:00;4.80;99.90
10390;DHT22;5241;47.830;12.972;2023-11-18T00:48:26;4.90;99.90
10390;DHT22;5241;47.830;12.972;2023-11-18T00:50:52;4.80;99.90
10390;DHT22;5241;47.830;12.972;2023-11-18T00:53:18;4.80;99.90
10390;DHT22;5241;47.830;12.972;2023-11-18T00:55:44;4.80;99.90
10390;DHT22;5241;47.830;12.972;2023-11-18T00:58:09;4.90;99.90
10390;DHT22;5241;47.830;12.972;2023-11-18T01:00:35;4.80;99.90
10390;DHT22;5241;47.830;12.972;2023-11-18T01:03:02;4.90;99.90
10390;DHT22;5241;47.830;12.972;2023-11-18T01:05:28;4.90;99.90
10390;DHT22;5241;47.830;12.972;2023-11-18T01:07:57;4.90;99.90
10390;DHT22;5241;47.830;12.972;2023-11-18T01:10:22;4.90;99.90
10390;DHT22;5241;47.830;12.972;2023-11-18T01:12:48;4.90;99.90
10390;DHT22;5241;47.830;12.972;2023-11-18T01:15:13;4.90;99.90
10390;DHT22;5241;47.830;12.972;2023-11-18T01:17:39;4.90;99.90
10390;DHT22;5241;47.830;12.972;2023-11-18T01:20:06;4.90;99.90
10390;DHT22;5241;47.830;12.972;2023-11-18T01:22:37;4.90;99.90
10390;DHT22;5241;47.830;12.972;2023-11-18T01:25:04;4.90;99.90
10390;DHT22;5241;47.830;12.972;2023-11-18T01:27:30;4.90;99.90
10390;DHT22;5241;47.830;12.972;2023-11-18T01:29:55;4.90;99.90
10390;DHT22;5241;47.830;12.972;2023-11-18T01:32:21;4.90;99.90
10390;DHT22;5241;47.830;12.972;2023-11-18T01:34:47;4.90;99.90
10390;DHT22;5241;47.830;12.972;2023-11-18T01:37:18;4.90;99.90
10390;DHT22;5241;47.830;12.972;2023-11-18T01:39:46;4.90;99.90
10390;DHT22;5241;47.830;12.972;2023-11-18T01:42:12;4.90;99.90
10390;DHT22;5241;47.830;12.972;2023-11-18T01:44:37;4.90;99.90
10390;DHT22;5241;47.830;12.972;2023-11-18T01:47:03;4.90;99.90
10390;DHT22;5241;47.830;12.972;2023-11-18T01:49:37;4.90;99.90
10390;DHT22;5241;47.830;12.972;2023-11-18T01:52:05;4.90;99.90
10390;DHT22;5241;47.830;12.972;2023-11-18T01:54:34;4.90;99.90
10390;DHT22;5241;47.830;12.972;2023-11-18T01:57:03;4.90;99.90
10390;DHT22;5241;47.830;12.972;2023-11-18T01:59:32;5.00;99.90
10390;DHT22;5241;47.830;12.972;2023-11-18T02:01:59;5.00;99.90
10390;DHT22;5241;47.830;12.972;2023-11-18T02:04:25;5.00;99.90
10390;DHT22;5241;47.830;12.972;2023-11-18T02:06:51;4.90;99.90
10390;DHT22;5241;47.830;12.972;2023-11-18T02:09:18;4.90;99.90
10390;DHT22;5241;47.830;12.972;2023-11-18T02:14:23;5.00;99.90
10390;DHT22;5241;47.830;12.972;2023-11-18T02:16:52;4.90;99.90
10390;DHT22;5241;47.830;12.972;2023-11-18T02:19:24;5.00;99.90
10390;DHT22;5241;47.830;12.972;2023-11-18T02:21:50;4.90;99.90
10390;DHT22;5241;47.830;12.972;2023-11-18T02:24:27;4.90;99.90
10390;DHT22;5241;47.830;12.972;2023-11-18T02:26:54;4.90;99.90
10390;DHT22;5241;47.830;12.972;2023-11-18T02:29:21;4.90;99.90
10390;DHT22;5241;47.830;12.972;2023-11-18T02:31:50;4.90;99.90
10390;DHT22;5241;47.830;12.972;2023-11-18T02:34:22;4.90;99.90
10390;DHT22;5241;47.830;12.972;2023-11-18T02:36:51;4.90;99.90
10390;DHT22;5241;47.830;12.972;2023-11-18T02:39:22;4.90;99.90
10390;DHT22;5241;47.830;12.972;2023-11-18T02:41:52;4.90;99.90
10390;DHT22;5241;47.830;12.972;2023-11-18T02:44:18;4.90;99.90
10390;DHT22;5241;47.830;12.972;2023-11-18T02:46:45;4.90;99.90
10390;DHT22;5241;47.830;12.972;2023-11-18T02:49:11;4.90;99.90
10390;DHT22;5241;47.830;12.972;2023-11-18T02:51:37;5.00;99.90
10390;DHT22;5241;47.830;12.972;2023-11-18T02:54:07;5.00;99.90
10390;DHT22;5241;47.830;12.972;2023-11-18T02:56:39;4.90;99.90
10390;DHT22;5241;47.830;12.972;2023-11-18T02:59:05;4.90;99.90
10390;DHT22;5241;47.830;12.972;2023-11-18T03:01:34;4.90;99.90
10390;DHT22;5241;47.830;12.972;2023-11-18T03:04:01;4.90;99.90
10390;DHT22;5241;47.830;12.972;2023-11-18T03:06:27;4.90;99.90
10390;DHT22;5241;47.830;12.972;2023-11-18T03:08:52;4.90;99.90
10390;DHT22;5241;47.830;12.972;2023-11-18T03:11:21;5.00;99.90
10390;DHT22;5241;47.830;12.972;2023-11-18T03:13:47;5.00;99.90
10390;DHT22;5241;47.830;12.972;2023-11-18T03:16:13;5.00;99.90
10390;DHT22;5241;47.830;12.972;2023-11-18T03:18:40;5.00;99.90
10390;DHT22;5241;47.830;12.972;2023-11-18T03:21:14;5.00;99.90
10390;DHT22;5241;47.830;12.972;2023-11-18T03:23:41;5.00;99.90
10390;DHT22;5241;47.830;12.972;2023-11-18T03:26:10;5.10;99.90
10390;DHT22;5241;47.830;12.972;2023-11-18T03:28:36;5.10;99.90
10390;DHT22;5241;47.830;12.972;2023-11-18T03:31:05;5.10;99.90
10390;DHT22;5241;47.830;12.972;2023-11-18T03:33:32;5.10;99.90
10390;DHT22;5241;47.830;12.972;2023-11-18T03:35:57;5.10;99.90
10390;DHT22;5241;47.830;12.972;2023-11-18T03:38:23;5.10;99.90
10390;DHT22;5241;47.830;12.972;2023-11-18T03:40:49;5.10;99.90
10390;DHT22;5241;47.830;12.972;2023-11-18T03:43:15;5.10;99.90
10390;DHT22;5241;47.830;12.972;2023-11-18T03:45:41;5.10;99.90
10390;DHT22;5241;47.830;12.972;2023-11-18T03:48:06;5.10;99.90
10390;DHT22;5241;47.830;12.972;2023-11-18T03:50:35;5.10;99.90
10390;DHT22;5241;47.830;12.972;2023-11-18T03:53:01;5.10;99.90
10390;DHT22;5241;47.830;12.972;2023-11-18T03:55:29;5.20;99.90
10390;DHT22;5241;47.830;12.972;2023-11-18T03:57:55;5.20;99.90
10390;DHT22;5241;47.830;12.972;2023-11-18T04:00:22;5.10;99.90
10390;DHT22;5241;47.830;12.972;2023-11-18T04:02:48;5.10;99.90
10390;DHT22;5241;47.830;12.972;2023-11-18T04:05:14;5.10;99.90
10390;DHT22;5241;47.830;12.972;2023-11-18T04:07:40;5.10;99.90
10390;DHT22;5241;47.830;12.972;2023-11-18T04:10:07;5.20;99.90
10390;DHT22;5241;47.830;12.972;2023-11-18T04:12:35;5.20;99.90
10390;DHT22;5241;47.830;12.972;2023-11-18T04:15:01;5.10;99.90
10390;DHT22;5241;47.830;12.972;2023-11-18T04:17:26;5.10;99.90
10390;DHT22;5241;47.830;12.972;2023-11-18T04:19:53;5.10;99.90
10390;DHT22;5241;47.830;12.972;2023-11-18T04:22:21;5.10;99.90
10390;DHT22;5241;47.830;12.972;2023-11-18T04:24:47;5.10;99.90
10390;DHT22;5241;47.830;12.972;2023-11-18T04:27:13;5.10;99.90
10390;DHT22;5241;47.830;12.972;2023-11-18T04:29:38;5.10;99.90
10390;DHT22;5241;47.830;12.972;2023-11-18T04:32:06;5.10;99.90
10390;DHT22;5241;47.830;12.972;2023-11-18T04:34:35;5.10;99.90
10390;DHT22;5241;47.830;12.972;2023-11-18T04:37:01;5.10;99.90
10390;DHT22;5241;47.830;12.972;2023-11-18T04:39:26;5.10;99.90
10390;DHT22;5241;47.830;12.972;2023-11-18T04:41:53;5.10;99.90
10390;DHT22;5241;47.830;12.972;2023-11-18T04:44:19;5.10;99.90
10390;DHT22;5241;47.830;12.972;2023-11-18T04:46:44;5.10;99.90
10390;DHT22;5241;47.830;12.972;2023-11-18T04:49:10;5.10;99.90
10390;DHT22;5241;47.830;12.972;2023-11-18T04:51:36;5.10;99.90
10390;DHT22;5241;47.830;12.972;2023-11-18T04:54:01;5.10;99.90
10390;DHT22;5241;47.830;12.972;2023-11-18T04:56:28;5.10;99.90
10390;DHT22;5241;47.830;12.972;2023-11-18T04:58:54;5.10;99.90
10390;DHT22;5241;47.830;12.972;2023-11-18T05:01:19;5.10;99.90
10390;DHT22;5241;47.830;12.972;2023-11-18T05:03:45;5.10;99.90
10390;DHT22;5241;47.830;12.972;2023-11-18T05:06:11;5.10;99.90
10390;DHT22;5241;47.830;12.972;2023-11-18T05:08:36;5.10;99.90
10390;DHT22;5241;47.830;12.972;2023-11-18T05:11:02;5.10;99.90
10390;DHT22;5241;47.830;12.972;2023-11-18T05:13:30;5.10;99.90
10390;DHT22;5241;47.830;12.972;2023-11-18T05:15:55;5.10;99.90
10390;DHT22;5241;47.830;12.972;2023-11-18T05:18:21;5.10;99.90
10390;DHT22;5241;47.830;12.972;2023-11-18T05:20:46;5.10;99.90
10390;DHT22;5241;47.830;12.972;2023-11-18T05:23:13;5.10;99.90
10390;DHT22;5241;47.830;12.972;2023-11-18T05:25:42;5.10;99.90
10390;DHT22;5241;47.830;12.972;2023-11-18T05:28:09;5.00;99.90
10390;DHT22;5241;47.830;12.972;2023-11-18T05:30:35;5.10;99.90
10390;DHT22;5241;47.830;12.972;2023-11-18T05:33:02;5.10;99.90
10390;DHT22;5241;47.830;12.972;2023-11-18T05:35:30;5.10;99.90
10390;DHT22;5241;47.830;12.972;2023-11-18T05:37:57;5.00;99.90
10390;DHT22;5241;47.830;12.972;2023-11-18T05:40:22;5.00;99.90
10390;DHT22;5241;47.830;12.972;2023-11-18T05:42:48;5.00;99.90
10390;DHT22;5241;47.830;12.972;2023-11-18T05:45:17;5.00;99.90
10390;DHT22;5241;47.830;12.972;2023-11-18T05:47:54;5.00;99.90
10390;DHT22;5241;47.830;12.972;2023-11-18T05:50:21;5.00;99.90
10390;DHT22;5241;47.830;12.972;2023-11-18T05:52:46;5.10;99.90
10390;DHT22;5241;47.830;12.972;2023-11-18T05:55:12;5.00;99.90
10390;DHT22;5241;47.830;12.972;2023-11-18T05:57:38;5.00;99.90
10390;DHT22;5241;47.830;12.972;2023-11-18T06:00:04;5.00;99.90
10390;DHT22;5241;47.830;12.972;2023-11-18T06:02:31;5.00;99.90
10390;DHT22;5241;47.830;12.972;2023-11-18T06:04:56;5.00;99.90
10390;DHT22;5241;47.830;12.972;2023-11-18T06:07:22;5.00;99.90
10390;DHT22;5241;47.830;12.972;2023-11-18T06:09:48;5.00;99.90
10390;DHT22;5241;47.830;12.972;2023-11-18T06:12:14;4.90;99.90
10390;DHT22;5241;47.830;12.972;2023-11-18T06:14:43;4.90;99.90
10390;DHT22;5241;47.830;12.972;2023-11-18T06:17:10;4.90;99.90
10390;DHT22;5241;47.830;12.972;2023-11-18T06:19:38;4.90;99.90
10390;DHT22;5241;47.830;12.972;2023-11-18T06:22:05;4.90;99.90
10390;DHT22;5241;47.830;12.972;2023-11-18T06:24:31;4.90;99.90
10390;DHT22;5241;47.830;12.972;2023-11-18T06:26:56;4.90;99.90
10390;DHT22;5241;47.830;12.972;2023-11-18T06:29:25;4.90;99.90
10390;DHT22;5241;47.830;12.972;2023-11-18T06:31:50;4.90;99.90
10390;DHT22;5241;47.830;12.972;2023-11-18T06:34:16;4.90;99.90
10390;DHT22;5241;47.830;12.972;2023-11-18T06:36:41;4.90;99.90
10390;DHT22;5241;47.830;12.972;2023-11-18T06:39:07;4.90;99.90
10390;DHT22;5241;47.830;12.972;2023-11-18T06:41:33;4.90;99.90
10390;DHT22;5241;47.830;12.972;2023-11-18T06:43:59;4.90;99.90
10390;DHT22;5241;47.830;12.972;2023-11-18T06:46:34;4.90;99.90
10390;DHT22;5241;47.830;12.972;2023-11-18T06:49:01;4.90;99.90
10390;DHT22;5241;47.830;12.972;2023-11-18T06:51:32;5.00;99.90
10390;DHT22;5241;47.830;12.972;2023-11-18T06:54:00;5.00;99.90
10390;DHT22;5241;47.830;12.972;2023-11-18T06:56:28;5.00;99.90
10390;DHT22;5241;47.830;12.972;2023-11-18T06:58:54;5.00;99.90
10390;DHT22;5241;47.830;12.972;2023-11-18T07:01:20;5.00;99.90
10390;DHT22;5241;47.830;12.972;2023-11-18T07:03:47;5.00;99.90
10390;DHT22;5241;47.830;12.972;2023-11-18T07:06:18;5.00;99.90
10390;DHT22;5241;47.830;12.972;2023-11-18T07:08:48;5.10;99.90
10390;DHT22;5241;47.830;12.972;2023-11-18T07:11:17;5.10;99.90
10390;DHT22;5241;47.830;12.972;2023-11-18T07:13:44;5.10;99.90
10390;DHT22;5241;47.830;12.972;2023-11-18T07:16:09;5.20;99.90
10390;DHT22;5241;47.830;12.972;2023-11-18T07:18:36;5.20;99.90
10390;DHT22;5241;47.830;12.972;2023-11-18T07:21:03;5.30;99.90
10390;DHT22;5241;47.830;12.972;2023-11-18T07:23:33;5.20;99.90
10390;DHT22;5241;47.830;12.972;2023-11-18T07:26:00;5.30;99.90
10390;DHT22;5241;47.830;12.972;2023-11-18T07:28:26;5.30;99.90
10390;DHT22;5241;47.830;12.972;2023-11-18T07:30:52;5.30;99.90
10390;DHT22;5241;47.830;12.972;2023-11-18T07:33:19;5.30;99.90
10390;DHT22;5241;47.830;12.972;2023-11-18T07:35:46;5.40;99.90
10390;DHT22;5241;47.830;12.972;2023-11-18T07:38:15;5.40;99.90
10390;DHT22;5241;47.830;12.972;2023-11-18T07:40:41;5.30;99.90
10390;DHT22;5241;47.830;12.972;2023-11-18T07:43:13;5.40;99.90
10390;DHT22;5241;47.830;12.972;2023-11-18T07:45:39;5.40;99.90
10390;DHT22;5241;47.830;12.972;2023-11-18T07:48:06;5.50;99.90
10390;DHT22;5241;47.830;12.972;2023-11-18T07:50:41;5.50;99.90
10390;DHT22;5241;47.830;12.972;2023-11-18T07:53:07;5.50;99.90
10390;DHT22;5241;47.830;12.972;2023-11-18T07:55:34;5.50;99.90
10390;DHT22;5241;47.830;12.972;2023-11-18T07:58:00;5.50;99.90
10390;DHT22;5241;47.830;12.972;2023-11-18T08:00:27;5.60;99.90
10390;DHT22;5241;47.830;12.972;2023-11-18T08:02:56;5.60;99.90
10390;DHT22;5241;47.830;12.972;2023-11-18T08:05:22;5.60;99.90
10390;DHT22;5241;47.830;12.972;2023-11-18T08:07:49;5.60;99.90
10390;DHT22;5241;47.830;12.972;2023-11-18T08:10:14;5.60;99.90
10390;DHT22;5241;47.830;12.972;2023-11-18T08:12:45;5.60;99.90
10390;DHT22;5241;47.830;12.972;2023-11-18T08:15:10;5.60;99.90
10390;DHT22;5241;47.830;12.972;2023-11-18T08:17:36;5.60;99.90
10390;DHT22;5241;47.830;12.972;2023-11-18T08:20:02;5.60;99.90
10390;DHT22;5241;47.830;12.972;2023-11-18T08:22:40;5.70;99.90
10390;DHT22;5241;47.830;12.972;2023-11-18T08:25:07;5.80;99.90
10390;DHT22;5241;47.830;12.972;2023-11-18T08:27:34;5.80;99.90
10390;DHT22;5241;47.830;12.972;2023-11-18T08:30:01;5.80;99.90
10390;DHT22;5241;47.830;12.972;2023-11-18T08:32:26;5.90;99.90
10390;DHT22;5241;47.830;12.972;2023-11-18T08:34:52;6.00;99.90
10390;DHT22;5241;47.830;12.972;2023-11-18T08:37:17;6.00;99.90
10390;DHT22;5241;47.830;12.972;2023-11-18T08:39:43;6.00;99.90
10390;DHT22;5241;47.830;12.972;2023-11-18T08:42:08;6.00;99.90
10390;DHT22;5241;47.830;12.972;2023-11-18T08:44:34;6.10;99.90
10390;DHT22;5241;47.830;12.972;2023-11-18T08:46:59;6.20;99.90
10390;DHT22;5241;47.830;12.972;2023-11-18T08:49:26;6.20;99.90
10390;DHT22;5241;47.830;12.972;2023-11-18T08:51:59;6.30;99.90
10390;DHT22;5241;47.830;12.972;2023-11-18T08:54:24;6.40;99.90
10390;DHT22;5241;47.830;12.972;2023-11-18T08:57:06;6.40;99.90
10390;DHT22;5241;47.830;12.972;2023-11-18T08:59:51;6.40;99.90
10390;DHT22;5241;47.830;12.972;2023-11-18T09:02:19;6.40;99.90
10390;DHT22;5241;47.830;12.972;2023-11-18T09:04:49;6.50;99.90
10390;DHT22;5241;47.830;12.972;2023-11-18T09:07:15;6.50;99.90
10390;DHT22;5241;47.830;12.972;2023-11-18T09:09:41;6.50;99.90
10390;DHT22;5241;47.830;12.972;2023-11-18T09:12:07;6.60;99.90
10390;DHT22;5241;47.830;12.972;2023-11-18T09:14:34;6.70;99.90
10390;DHT22;5241;47.830;12.972;2023-11-18T09:16:59;6.70;99.90
10390;DHT22;5241;47.830;12.972;2023-11-18T09:19:25;6.70;99.90
10390;DHT22;5241;47.830;12.972;2023-11-18T09:21:51;6.80;99.90
10390;DHT22;5241;47.830;12.972;2023-11-18T09:24:20;6.80;99.90
10390;DHT22;5241;47.830;12.972;2023-11-18T09:26:46;6.80;99.90
10390;DHT22;5241;47.830;12.972;2023-11-18T09:29:16;6.70;99.90
10390;DHT22;5241;47.830;12.972;2023-11-18T09:31:46;6.80;99.90
10390;DHT22;5241;47.830;12.972;2023-11-18T09:34:16;6.80;99.90
10390;DHT22;5241;47.830;12.972;2023-11-18T09:36:43;6.80;99.90
10390;DHT22;5241;47.830;12.972;2023-11-18T09:39:10;7.00;99.90
10390;DHT22;5241;47.830;12.972;2023-11-18T09:41:49;6.90;99.90
10390;DHT22;5241;47.830;12.972;2023-11-18T09:44:15;6.80;99.90
10390;DHT22;5241;47.830;12.972;2023-11-18T09:46:46;6.70;99.90
10390;DHT22;5241;47.830;12.972;2023-11-18T09:49:29;6.80;99.90
10390;DHT22;5241;47.830;12.972;2023-11-18T09:52:05;6.90;99.90
10390;DHT22;5241;47.830;12.972;2023-11-18T09:54:39;6.90;99.90
10390;DHT22;5241;47.830;12.972;2023-11-18T09:57:16;6.90;99.90
10390;DHT22;5241;47.830;12.972;2023-11-18T10:00:05;6.90;99.90
10390;DHT22;5241;47.830;12.972;2023-11-18T10:02:52;6.70;99.90
10390;DHT22;5241;47.830;12.972;2023-11-18T10:05:20;6.80;99.90
10390;DHT22;5241;47.830;12.972;2023-11-18T10:07:52;6.90;99.90
10390;DHT22;5241;47.830;12.972;2023-11-18T10:10:18;6.90;99.90
10390;DHT22;5241;47.830;12.972;2023-11-18T10:12:50;6.90;99.90
10390;DHT22;5241;47.830;12.972;2023-11-18T10:15:23;6.90;99.90
10390;DHT22;5241;47.830;12.972;2023-11-18T10:17:51;6.80;99.90
10390;DHT22;5241;47.830;12.972;2023-11-18T10:20:23;6.80;99.90
10390;DHT22;5241;47.830;12.972;2023-11-18T10:23:10;6.90;99.90
10390;DHT22;5241;47.830;12.972;2023-11-18T10:25:37;6.90;99.90
10390;DHT22;5241;47.830;12.972;2023-11-18T10:28:07;7.00;99.90
10390;DHT22;5241;47.830;12.972;2023-11-18T10:30:43;7.10;99.90
10390;DHT22;5241;47.830;12.972;2023-11-18T10:33:14;7.10;99.90
10390;DHT22;5241;47.830;12.972;2023-11-18T10:35:49;7.10;99.90
10390;DHT22;5241;47.830;12.972;2023-11-18T10:38:16;7.10;99.90
10390;DHT22;5241;47.830;12.972;2023-11-18T10:40:42;7.20;99.90
10390;DHT22;5241;47.830;12.972;2023-11-18T10:43:12;7.40;99.90
10390;DHT22;5241;47.830;12.972;2023-11-18T10:45:37;7.50;99.90
10390;DHT22;5241;47.830;12.972;2023-11-18T10:48:06;7.50;99.90
10390;DHT22;5241;47.830;12.972;2023-11-18T10:50:32;7.40;99.90
10390;DHT22;5241;47.830;12.972;2023-11-18T10:53:01;7.50;99.90
10390;DHT22;5241;47.830;12.972;2023-11-18T10:55:35;7.80;99.90
10390;DHT22;5241;47.830;12.972;2023-11-18T10:58:02;7.70;99.90
10390;DHT22;5241;47.830;12.972;2023-11-18T11:00:45;7.70;99.90
10390;DHT22;5241;47.830;12.972;2023-11-18T11:03:11;7.80;99.90
10390;DHT22;5241;47.830;12.972;2023-11-18T11:05:39;7.70;99.90
10390;DHT22;5241;47.830;12.972;2023-11-18T11:08:08;7.60;99.90
10390;DHT22;5241;47.830;12.972;2023-11-18T11:10:34;7.70;99.90
10390;DHT22;5241;47.830;12.972;2023-11-18T11:13:01;7.70;99.90
10390;DHT22;5241;47.830;12.972;2023-11-18T11:15:32;7.80;99.90
10390;DHT22;5241;47.830;12.972;2023-11-18T11:18:04;8.00;99.90
10390;DHT22;5241;47.830;12.972;2023-11-18T11:20:39;7.90;99.90
10390;DHT22;5241;47.830;12.972;2023-11-18T11:31:41;8.60;99.90
10390;DHT22;5241;47.830;12.972;2023-11-18T11:34:18;8.70;99.90
10390;DHT22;5241;47.830;12.972;2023-11-18T11:36:49;8.50;99.90
10390;DHT22;5241;47.830;12.972;2023-11-18T11:39:16;8.20;99.90
10390;DHT22;5241;47.830;12.972;2023-11-18T11:41:55;8.20;99.90
10390;DHT22;5241;47.830;12.972;2023-11-18T11:44:22;8.30;99.90
10390;DHT22;5241;47.830;12.972;2023-11-18T11:46:58;8.20;99.90
10390;DHT22;5241;47.830;12.972;2023-11-18T11:49:26;8.10;99.90
10390;DHT22;5241;47.830;12.972;2023-11-18T11:52:04;8.30;99.90
10390;DHT22;5241;47.830;12.972;2023-11-18T11:54:42;8.40;99.90
10390;DHT22;5241;47.830;12.972;2023-11-18T11:57:10;8.70;99.90
10390;DHT22;5241;47.830;12.972;2023-11-18T12:02:15;8.80;99.90
10390;DHT22;5241;47.830;12.972;2023-11-18T12:04:50;8.70;99.90
10390;DHT22;5241;47.830;12.972;2023-11-18T12:07:22;8.80;99.90
10390;DHT22;5241;47.830;12.972;2023-11-18T12:09:52;8.80;99.90
10390;DHT22;5241;47.830;12.972;2023-11-18T12:12:24;8.70;99.90
10390;DHT22;5241;47.830;12.972;2023-11-18T12:14:54;8.70;99.90
10390;DHT22;5241;47.830;12.972;2023-11-18T12:17:26;8.50;99.90
10390;DHT22;5241;47.830;12.972;2023-11-18T12:19:57;8.20;99.90
10390;DHT22;5241;47.830;12.972;2023-11-18T12:23:03;8.10;99.90
10390;DHT22;5241;47.830;12.972;2023-11-18T12:25:44;8.20;99.90
10390;DHT22;5241;47.830;12.972;2023-11-18T12:28:20;8.20;99.90
10390;DHT22;5241;47.830;12.972;2023-11-18T12:30:47;8.20;99.90
10390;DHT22;5241;47.830;12.972;2023-11-18T12:33:23;8.20;99.90
10390;DHT22;5241;47.830;12.972;2023-11-18T12:41:08;8.00;99.90
10390;DHT22;5241;47.830;12.972;2023-11-18T12:49:00;8.10;99.90
10390;DHT22;5241;47.830;12.972;2023-11-18T12:51:28;8.00;99.90
10390;DHT22;5241;47.830;12.972;2023-11-18T12:53:54;8.00;99.90
10390;DHT22;5241;47.830;12.972;2023-11-18T12:56:20;8.20;99.90
10390;DHT22;5241;47.830;12.972;2023-11-18T12:58:46;8.20;99.90
10390;DHT22;5241;47.830;12.972;2023-11-18T13:01:13;8.00;99.90
10390;DHT22;5241;47.830;12.972;2023-11-18T13:03:40;7.90;99.90
10390;DHT22;5241;47.830;12.972;2023-11-18T13:06:08;7.70;99.90
10390;DHT22;5241;47.830;12.972;2023-11-18T13:08:34;7.70;99.90
10390;DHT22;5241;47.830;12.972;2023-11-18T13:11:00;7.60;99.90
10390;DHT22;5241;47.830;12.972;2023-11-18T13:13:33;7.50;99.90
10390;DHT22;5241;47.830;12.972;2023-11-18T13:15:58;7.50;99.90
10390;DHT22;5241;47.830;12.972;2023-11-18T13:18:24;7.50;99.90
10390;DHT22;5241;47.830;12.972;2023-11-18T13:20:58;7.50;99.90
10390;DHT22;5241;47.830;12.972;2023-11-18T13:23:26;7.50;99.90
10390;DHT22;5241;47.830;12.972;2023-11-18T13:25:57;7.50;99.90
10390;DHT22;5241;47.830;12.972;2023-11-18T13:28:26;7.40;99.90
10390;DHT22;5241;47.830;12.972;2023-11-18T13:30:51;7.40;99.90
10390;DHT22;5241;47.830;12.972;2023-11-18T13:33:17;7.50;99.90
10390;DHT22;5241;47.830;12.972;2023-11-18T13:35:43;7.50;99.90
10390;DHT22;5241;47.830;12.972;2023-11-18T13:38:09;7.50;99.90
10390;DHT22;5241;47.830;12.972;2023-11-18T13:40:46;7.60;99.90
10390;DHT22;5241;47.830;12.972;2023-11-18T13:43:15;7.70;99.90
10390;DHT22;5241;47.830;12.972;2023-11-18T13:45:41;7.60;99.90
10390;DHT22;5241;47.830;12.972;2023-11-18T13:48:11;7.70;99.90
10390;DHT22;5241;47.830;12.972;2023-11-18T13:50:41;7.80;99.90
10390;DHT22;5241;47.830;12.972;2023-11-18T13:53:07;7.90;99.90
10390;DHT22;5241;47.830;12.972;2023-11-18T13:55:33;8.00;99.90
10390;DHT22;5241;47.830;12.972;2023-11-18T13:58:01;8.10;99.90
10390;DHT22;5241;47.830;12.972;2023-11-18T14:00:28;8.10;99.90
10390;DHT22;5241;47.830;12.972;2023-11-18T14:02:55;7.90;99.90
10390;DHT22;5241;47.830;12.972;2023-11-18T14:05:22;7.70;99.90
10390;DHT22;5241;47.830;12.972;2023-11-18T14:07:57;7.50;99.90
10390;DHT22;5241;47.830;12.972;2023-11-18T14:10:25;7.30;99.90
10390;DHT22;5241;47.830;12.972;2023-11-18T14:13:04;7.10;99.90
10390;DHT22;5241;47.830;12.972;2023-11-18T14:15:32;6.90;99.90
10390;DHT22;5241;47.830;12.972;2023-11-18T14:18:01;6.80;99.90
10390;DHT22;5241;47.830;12.972;2023-11-18T14:20:26;6.60;99.90
10390;DHT22;5241;47.830;12.972;2023-11-18T14:22:52;6.60;99.90
10390;DHT22;5241;47.830;12.972;2023-11-18T14:25:18;6.50;99.90
10390;DHT22;5241;47.830;12.972;2023-11-18T14:27:43;6.40;99.90
10390;DHT22;5241;47.830;12.972;2023-11-18T14:30:09;6.40;99.90
10390;DHT22;5241;47.830;12.972;2023-11-18T14:32:35;6.30;99.90
10390;DHT22;5241;47.830;12.972;2023-11-18T14:35:01;6.30;99.90
10390;DHT22;5241;47.830;12.972;2023-11-18T14:37:26;6.30;99.90
10390;DHT22;5241;47.830;12.972;2023-11-18T14:39:52;6.30;99.90
10390;DHT22;5241;47.830;12.972;2023-11-18T14:42:20;6.20;99.90
10390;DHT22;5241;47.830;12.972;2023-11-18T14:44:49;6.10;99.90
10390;DHT22;5241;47.830;12.972;2023-11-18T14:47:15;6.10;99.90
10390;DHT22;5241;47.830;12.972;2023-11-18T14:49:42;6.00;99.90
10390;DHT22;5241;47.830;12.972;2023-11-18T14:52:07;5.90;99.90
10390;DHT22;5241;47.830;12.972;2023-11-18T14:54:34;5.80;99.90
10390;DHT22;5241;47.830;12.972;2023-11-18T14:57:01;5.80;99.90
10390;DHT22;5241;47.830;12.972;2023-11-18T14:59:28;5.80;99.90
10390;DHT22;5241;47.830;12.972;2023-11-18T15:01:54;5.70;99.90
10390;DHT22;5241;47.830;12.972;2023-11-18T15:04:23;5.60;99.90
10390;DHT22;5241;47.830;12.972;2023-11-18T15:06:49;5.50;99.90
10390;DHT22;5241;47.830;12.972;2023-11-18T15:09:18;5.50;99.90
10390;DHT22;5241;47.830;12.972;2023-11-18T15:11:46;5.40;99.90
10390;DHT22;5241;47.830;12.972;2023-11-18T15:14:11;5.30;99.90
10390;DHT22;5241;47.830;12.972;2023-11-18T15:16:37;5.30;99.90
10390;DHT22;5241;47.830;12.972;2023-11-18T15:19:03;5.20;99.90
10390;DHT22;5241;47.830;12.972;2023-11-18T15:21:29;5.30;99.90
10390;DHT22;5241;47.830;12.972;2023-11-18T15:23:55;5.20;99.90
10390;DHT22;5241;47.830;12.972;2023-11-18T15:26:26;5.10;99.90
10390;DHT22;5241;47.830;12.972;2023-11-18T15:28:51;5.10;99.90
10390;DHT22;5241;47.830;12.972;2023-11-18T15:31:18;5.00;99.90
10390;DHT22;5241;47.830;12.972;2023-11-18T15:33:44;4.90;99.90
10390;DHT22;5241;47.830;12.972;2023-11-18T15:36:12;4.70;99.90
10390;DHT22;5241;47.830;12.972;2023-11-18T15:38:37;4.70;99.90
10390;DHT22;5241;47.830;12.972;2023-11-18T15:41:03;4.70;99.90
10390;DHT22;5241;47.830;12.972;2023-11-18T15:43:29;4.60;99.90
10390;DHT22;5241;47.830;12.972;2023-11-18T15:45:55;4.70;99.90
10390;DHT22;5241;47.830;12.972;2023-11-18T15:48:26;4.60;99.90
10390;DHT22;5241;47.830;12.972;2023-11-18T15:50:52;4.70;99.90
10390;DHT22;5241;47.830;12.972;2023-11-18T15:53:17;4.70;99.90
10390;DHT22;5241;47.830;12.972;2023-11-18T15:55:45;4.60;99.90
10390;DHT22;5241;47.830;12.972;2023-11-18T15:58:12;4.50;99.90
10390;DHT22;5241;47.830;12.972;2023-11-18T16:00:38;4.30;99.90
10390;DHT22;5241;47.830;12.972;2023-11-18T16:03:04;4.30;99.90
10390;DHT22;5241;47.830;12.972;2023-11-18T16:05:34;4.50;99.90
10390;DHT22;5241;47.830;12.972;2023-11-18T16:08:00;4.60;99.90
10390;DHT22;5241;47.830;12.972;2023-11-18T16:10:27;4.70;99.90
10390;DHT22;5241;47.830;12.972;2023-11-18T16:12:57;4.60;99.90
10390;DHT22;5241;47.830;12.972;2023-11-18T16:15:25;4.60;99.90